Trident — WDF5944 — position and weather

sailwx.info

Track history (hours):
 
Tides and Currents Weather Stations Pressure Air Temp Water Temp Dewpoint Dewpoint Depression Visibility Wind Speed Wind Dir Waves Ship Positions

Trident

Owner: Marquette Transportation Company Offshore, LLC, Jefferson, LA. More information available from US FCC via Universal Licensing System and Coast Guard Vessel Documentation Center.

Last reported at 2018-Jun-17 01:37 UTC. Time now 2018-Jun-23 12:24 UTC.
Position N 25°37' W 080°03'.

Length 24 m; draft 3 m.

Type: Towing. MMSI: 367468960.

Date/timePositionNaut miles runAvg speedWind from/ knotsBaromVisibWave heightAir tempDewpointWater temp
2018-Jun-17 01:37N 25°37' W 080°03'1 3.5
2018-Jun-17 01:28N 25°37' W 080°03'2 3.4
2018-Jun-17 00:59N 25°39' W 080°03'2 3.3
2018-Jun-17 00:30N 25°41' W 080°02'2 3.4
2018-Jun-17 00:00N 25°42' W 080°02'2 3.3
2018-Jun-16 23:30N 25°44' W 080°02'2 3.3
2018-Jun-16 23:00N 25°46' W 080°02'2 3.2
2018-Jun-16 22:30N 25°47' W 080°03'2 3.2
2018-Jun-16 22:00N 25°49' W 080°02'2 3.1
2018-Jun-16 21:30N 25°50' W 080°02'2 3.1
2018-Jun-16 21:00N 25°52' W 080°02'2 3.2
2018-Jun-16 20:30N 25°54' W 080°02'2 3.2
2018-Jun-16 20:00N 25°55' W 080°02'2 3.2
2018-Jun-16 19:29N 25°57' W 080°02'1 3.1
2018-Jun-16 19:00N 25°58' W 080°02'2 3.3
2018-Jun-16 18:30N 25°60' W 080°01'2 3.4
2018-Jun-16 18:00N 26°01' W 080°01'2 3.5
2018-Jun-16 17:30N 26°03' W 080°00'2 3.6
2018-Jun-16 17:00N 26°05' W 079°60'2 3.6
2018-Jun-16 16:30N 26°07' W 079°59'2 3.6
2018-Jun-16 16:00N 26°08' W 080°00'2 5.1
2018-Jun-16 15:30N 26°11' W 080°00'3 6.2
2018-Jun-16 15:00N 26°14' W 080°01'3 5.9
2018-Jun-16 14:29N 26°17' W 080°01'3 5.9
2018-Jun-16 14:00N 26°20' W 080°01'3 6.0
2018-Jun-16 13:30N 26°23' W 080°01'3 6.2
2018-Jun-16 12:59N 26°26' W 080°01'25 5.1
2018-Jun-16 08:04N 26°51' W 079°59'0 4.1
2018-Jun-16 07:58N 26°51' W 079°59'2 4.0
2018-Jun-16 07:30N 26°53' W 079°59'2 4.2
2018-Jun-16 07:00N 26°55' W 079°59'2 4.7
2018-Jun-16 06:30N 26°58' W 079°60'2 4.5
2018-Jun-16 06:00N 26°60' W 079°60'  
2018-Jun-10 04:29N 39°32' W 074°01'3 6.5
2018-Jun-10 03:59N 39°35' W 073°60'7 6.4
2018-Jun-10 02:55N 39°42' W 073°57'3 6.3
2018-Jun-10 02:28N 39°44' W 073°56'52 5.2
2018-Jun-09 16:25N 40°36' W 074°03'3 6.1
2018-Jun-09 15:59N 40°39' W 074°03'1 2.4
2018-Jun-09 15:27N 40°40' W 074°03'4 4.1
2018-Jun-09 14:30N 40°39' W 074°08'3 0.6
2018-Jun-09 09:54N 40°38' W 074°12'0 0.2
2018-Jun-09 09:28N 40°38' W 074°12'2 5.1
2018-Jun-09 08:59N 40°39' W 074°08'4 7.4
2018-Jun-09 08:30N 40°39' W 074°04'1 2.2
2018-Jun-09 08:00N 40°40' W 074°03'0 0.1
2018-Jun-09 07:30N 40°40' W 074°03'0 0.1
2018-Jun-09 07:00N 40°40' W 074°03'0 0.0
2018-Jun-09 06:30N 40°40' W 074°03'0 0.0
2018-Jun-09 06:00N 40°40' W 074°03'0 0.1
2018-Jun-09 05:30N 40°40' W 074°03'0 0.0
2018-Jun-09 05:00N 40°40' W 074°03'0 0.1
2018-Jun-09 04:30N 40°40' W 074°03'0 0.0
2018-Jun-09 04:00N 40°40' W 074°03'0 0.0
2018-Jun-09 03:27N 40°40' W 074°03'0 0.0
2018-Jun-09 03:00N 40°40' W 074°03'0 0.0
2018-Jun-09 02:30N 40°40' W 074°03'0 0.0
2018-Jun-09 02:00N 40°40' W 074°03'0 0.0
2018-Jun-09 01:30N 40°40' W 074°03'0 0.0
2018-Jun-09 00:57N 40°40' W 074°03'0 0.0
2018-Jun-09 00:30N 40°40' W 074°03'0 0.0
2018-Jun-09 00:00N 40°40' W 074°03'0 0.1
2018-Jun-08 23:27N 40°40' W 074°03'0 0.0
2018-Jun-08 23:00N 40°40' W 074°03'0 0.2
2018-Jun-08 22:30N 40°40' W 074°03'0 0.1
2018-Jun-08 22:00N 40°40' W 074°03'0 0.0
2018-Jun-08 21:30N 40°40' W 074°03'0 0.0
2018-Jun-08 19:54N 40°40' W 074°03'0 0.1
2018-Jun-08 19:27N 40°40' W 074°03'0 0.0
2018-Jun-08 19:00N 40°40' W 074°03'0 0.1
2018-Jun-08 18:30N 40°40' W 074°03'0 0.0
2018-Jun-08 18:00N 40°40' W 074°03'0 0.2
2018-Jun-08 17:30N 40°40' W 074°03'0 0.1
2018-Jun-08 17:00N 40°40' W 074°03'0 0.0
2018-Jun-08 16:30N 40°40' W 074°03'0 0.0
2018-Jun-08 16:00N 40°40' W 074°03'0 0.0
2018-Jun-08 15:30N 40°40' W 074°03'0 0.0
2018-Jun-08 15:00N 40°40' W 074°03'0 0.0
2018-Jun-08 14:30N 40°40' W 074°03'0 0.0
2018-Jun-08 13:57N 40°40' W 074°03'0 0.0
2018-Jun-08 13:30N 40°40' W 074°03'0 0.1
2018-Jun-08 12:57N 40°40' W 074°03'0 0.1
2018-Jun-08 12:30N 40°40' W 074°03'0 0.1
2018-Jun-08 12:00N 40°40' W 074°03'0 0.4
2018-Jun-08 11:26N 40°40' W 074°03'2 4.5
2018-Jun-08 11:00N 40°41' W 074°02'3 5.3
2018-Jun-08 10:30N 40°44' W 074°01'2 4.7
2018-Jun-08 10:00N 40°46' W 074°00'2 4.2
2018-Jun-08 09:27N 40°48' W 073°59'4 4.2
2018-Jun-08 08:28N 40°52' W 073°57'  
Track history (hours):
 
Tides and Currents Weather Stations Pressure Air Temp Water Temp Dewpoint Dewpoint Depression Visibility Wind Speed Wind Dir Waves Ship Positions

Trident

Owner: Marquette Transportation Company Offshore, LLC, Jefferson, LA. More information available from US FCC via Universal Licensing System and Coast Guard Vessel Documentation Center.

Last reported at 2018-Jun-17 01:37 UTC. Time now 2018-Jun-23 12:24 UTC.
Position N 25°37' W 080°03'.

Length 24 m; draft 3 m.

Type: Towing. MMSI: 367468960.

Date/timePositionNaut miles runAvg speedWind from/ knotsBaromVisibWave heightAir tempDewpointWater temp
2018-Jun-17 01:37N 25°37' W 080°03'1 3.5
2018-Jun-17 01:28N 25°37' W 080°03'2 3.4
2018-Jun-17 00:59N 25°39' W 080°03'2 3.3
2018-Jun-17 00:30N 25°41' W 080°02'2 3.4
2018-Jun-17 00:00N 25°42' W 080°02'2 3.3
2018-Jun-16 23:30N 25°44' W 080°02'2 3.3
2018-Jun-16 23:00N 25°46' W 080°02'2 3.2
2018-Jun-16 22:30N 25°47' W 080°03'2 3.2
2018-Jun-16 22:00N 25°49' W 080°02'2 3.1
2018-Jun-16 21:30N 25°50' W 080°02'2 3.1
2018-Jun-16 21:00N 25°52' W 080°02'2 3.2
2018-Jun-16 20:30N 25°54' W 080°02'2 3.2
2018-Jun-16 20:00N 25°55' W 080°02'2 3.2
2018-Jun-16 19:29N 25°57' W 080°02'1 3.1
2018-Jun-16 19:00N 25°58' W 080°02'2 3.3
2018-Jun-16 18:30N 25°60' W 080°01'2 3.4
2018-Jun-16 18:00N 26°01' W 080°01'2 3.5
2018-Jun-16 17:30N 26°03' W 080°00'2 3.6
2018-Jun-16 17:00N 26°05' W 079°60'2 3.6
2018-Jun-16 16:30N 26°07' W 079°59'2 3.6
2018-Jun-16 16:00N 26°08' W 080°00'2 5.1
2018-Jun-16 15:30N 26°11' W 080°00'3 6.2
2018-Jun-16 15:00N 26°14' W 080°01'3 5.9
2018-Jun-16 14:29N 26°17' W 080°01'3 5.9
2018-Jun-16 14:00N 26°20' W 080°01'3 6.0
2018-Jun-16 13:30N 26°23' W 080°01'3 6.2
2018-Jun-16 12:59N 26°26' W 080°01'25 5.1
2018-Jun-16 08:04N 26°51' W 079°59'0 4.1
2018-Jun-16 07:58N 26°51' W 079°59'2 4.0
2018-Jun-16 07:30N 26°53' W 079°59'2 4.2
2018-Jun-16 07:00N 26°55' W 079°59'2 4.7
2018-Jun-16 06:30N 26°58' W 079°60'2 4.5
2018-Jun-16 06:00N 26°60' W 079°60'  
2018-Jun-10 04:29N 39°32' W 074°01'3 6.5
2018-Jun-10 03:59N 39°35' W 073°60'7 6.4
2018-Jun-10 02:55N 39°42' W 073°57'3 6.3
2018-Jun-10 02:28N 39°44' W 073°56'52 5.2
2018-Jun-09 16:25N 40°36' W 074°03'3 6.1
2018-Jun-09 15:59N 40°39' W 074°03'1 2.4
2018-Jun-09 15:27N 40°40' W 074°03'4 4.1
2018-Jun-09 14:30N 40°39' W 074°08'3 0.6
2018-Jun-09 09:54N 40°38' W 074°12'0 0.2
2018-Jun-09 09:28N 40°38' W 074°12'2 5.1
2018-Jun-09 08:59N 40°39' W 074°08'4 7.4
2018-Jun-09 08:30N 40°39' W 074°04'1 2.2
2018-Jun-09 08:00N 40°40' W 074°03'0 0.1
2018-Jun-09 07:30N 40°40' W 074°03'0 0.1
2018-Jun-09 07:00N 40°40' W 074°03'0 0.0
2018-Jun-09 06:30N 40°40' W 074°03'0 0.0
2018-Jun-09 06:00N 40°40' W 074°03'0 0.1
2018-Jun-09 05:30N 40°40' W 074°03'0 0.0
2018-Jun-09 05:00N 40°40' W 074°03'0 0.1
2018-Jun-09 04:30N 40°40' W 074°03'0 0.0
2018-Jun-09 04:00N 40°40' W 074°03'0 0.0
2018-Jun-09 03:27N 40°40' W 074°03'0 0.0
2018-Jun-09 03:00N 40°40' W 074°03'0 0.0
2018-Jun-09 02:30N 40°40' W 074°03'0 0.0
2018-Jun-09 02:00N 40°40' W 074°03'0 0.0
2018-Jun-09 01:30N 40°40' W 074°03'0 0.0
2018-Jun-09 00:57N 40°40' W 074°03'0 0.0
2018-Jun-09 00:30N 40°40' W 074°03'0 0.0
2018-Jun-09 00:00N 40°40' W 074°03'0 0.1
2018-Jun-08 23:27N 40°40' W 074°03'0 0.0
2018-Jun-08 23:00N 40°40' W 074°03'0 0.2
2018-Jun-08 22:30N 40°40' W 074°03'0 0.1
2018-Jun-08 22:00N 40°40' W 074°03'0 0.0
2018-Jun-08 21:30N 40°40' W 074°03'0 0.0
2018-Jun-08 19:54N 40°40' W 074°03'0 0.1
2018-Jun-08 19:27N 40°40' W 074°03'0 0.0
2018-Jun-08 19:00N 40°40' W 074°03'0 0.1
2018-Jun-08 18:30N 40°40' W 074°03'0 0.0
2018-Jun-08 18:00N 40°40' W 074°03'0 0.2
2018-Jun-08 17:30N 40°40' W 074°03'0 0.1
2018-Jun-08 17:00N 40°40' W 074°03'0 0.0
2018-Jun-08 16:30N 40°40' W 074°03'0 0.0
2018-Jun-08 16:00N 40°40' W 074°03'0 0.0
2018-Jun-08 15:30N 40°40' W 074°03'0 0.0
2018-Jun-08 15:00N 40°40' W 074°03'0 0.0
2018-Jun-08 14:30N 40°40' W 074°03'0 0.0
2018-Jun-08 13:57N 40°40' W 074°03'0 0.0
2018-Jun-08 13:30N 40°40' W 074°03'0 0.1
2018-Jun-08 12:57N 40°40' W 074°03'0 0.1
2018-Jun-08 12:30N 40°40' W 074°03'0 0.1
2018-Jun-08 12:00N 40°40' W 074°03'0 0.4
2018-Jun-08 11:26N 40°40' W 074°03'2 4.5
2018-Jun-08 11:00N 40°41' W 074°02'3 5.3
2018-Jun-08 10:30N 40°44' W 074°01'2 4.7
2018-Jun-08 10:00N 40°46' W 074°00'2 4.2
2018-Jun-08 09:27N 40°48' W 073°59'4 4.2
2018-Jun-08 08:28N 40°52' W 073°57'  

Dump ship's entire track history